sensor_id;sensor_type;location;lat;lon;timestamp;pressure;altitude;pressure_sealevel;temperature
15062;BMP180;7630;50.306;8.566;2023-01-29T00:01:41;98960.00;;;-0.20
15062;BMP180;7630;50.306;8.566;2023-01-29T00:05:42;98968.00;;;0.10
15062;BMP180;7630;50.306;8.566;2023-01-29T00:09:43;98967.00;;;-0.10
15062;BMP180;7630;50.306;8.566;2023-01-29T00:13:45;98964.00;;;-0.70
15062;BMP180;7630;50.306;8.566;2023-01-29T00:17:47;98971.00;;;0.60
15062;BMP180;7630;50.306;8.566;2023-01-29T00:21:48;98975.00;;;-0.10
15062;BMP180;7630;50.306;8.566;2023-01-29T00:25:49;98973.00;;;1.10
15062;BMP180;7630;50.306;8.566;2023-01-29T00:29:50;98970.00;;;-0.40
15062;BMP180;7630;50.306;8.566;2023-01-29T00:33:53;98959.00;;;0.60
15062;BMP180;7630;50.306;8.566;2023-01-29T00:37:55;98965.00;;;2.00
15062;BMP180;7630;50.306;8.566;2023-01-29T00:41:56;98973.00;;;2.30
15062;BMP180;7630;50.306;8.566;2023-01-29T00:46:15;98963.00;;;1.10
15062;BMP180;7630;50.306;8.566;2023-01-29T00:50:17;98964.00;;;1.00
15062;BMP180;7630;50.306;8.566;2023-01-29T00:54:19;98958.00;;;1.30
15062;BMP180;7630;50.306;8.566;2023-01-29T00:58:20;98944.00;;;1.50
15062;BMP180;7630;50.306;8.566;2023-01-29T01:02:22;98946.00;;;1.10
15062;BMP180;7630;50.306;8.566;2023-01-29T01:06:42;98940.00;;;1.50
15062;BMP180;7630;50.306;8.566;2023-01-29T01:10:43;98933.00;;;2.10
15062;BMP180;7630;50.306;8.566;2023-01-29T01:14:44;98930.00;;;1.10
15062;BMP180;7630;50.306;8.566;2023-01-29T01:18:46;98931.00;;;2.60
15062;BMP180;7630;50.306;8.566;2023-01-29T01:22:47;98930.00;;;2.70
15062;BMP180;7630;50.306;8.566;2023-01-29T01:26:48;98914.00;;;3.20
15062;BMP180;7630;50.306;8.566;2023-01-29T01:30:49;98902.00;;;0.70
15062;BMP180;7630;50.306;8.566;2023-01-29T01:34:51;98907.00;;;2.30
15062;BMP180;7630;50.306;8.566;2023-01-29T01:38:52;98897.00;;;2.30
15062;BMP180;7630;50.306;8.566;2023-01-29T01:42:59;98892.00;;;1.40
15062;BMP180;7630;50.306;8.566;2023-01-29T01:47:00;98896.00;;;1.30
15062;BMP180;7630;50.306;8.566;2023-01-29T01:51:03;98891.00;;;2.00
15062;BMP180;7630;50.306;8.566;2023-01-29T01:55:08;98894.00;;;3.00
15062;BMP180;7630;50.306;8.566;2023-01-29T01:59:13;98896.00;;;2.90
15062;BMP180;7630;50.306;8.566;2023-01-29T02:03:18;98890.00;;;3.10
15062;BMP180;7630;50.306;8.566;2023-01-29T02:07:45;98894.00;;;3.00
15062;BMP180;7630;50.306;8.566;2023-01-29T02:12:09;98889.00;;;2.60
15062;BMP180;7630;50.306;8.566;2023-01-29T02:16:10;98898.00;;;2.50
15062;BMP180;7630;50.306;8.566;2023-01-29T02:25:40;98914.00;;;2.50
15062;BMP180;7630;50.306;8.566;2023-01-29T02:38:24;98948.00;;;2.70
15062;BMP180;7630;50.306;8.566;2023-01-29T02:42:34;98933.00;;;2.50
15062;BMP180;7630;50.306;8.566;2023-01-29T02:46:44;98934.00;;;2.40
15062;BMP180;7630;50.306;8.566;2023-01-29T02:50:57;98932.00;;;2.70
15062;BMP180;7630;50.306;8.566;2023-01-29T02:55:15;98916.00;;;2.60
15062;BMP180;7630;50.306;8.566;2023-01-29T02:59:23;98901.00;;;2.70
15062;BMP180;7630;50.306;8.566;2023-01-29T03:03:27;98901.00;;;2.50
15062;BMP180;7630;50.306;8.566;2023-01-29T03:07:33;98909.00;;;2.30
15062;BMP180;7630;50.306;8.566;2023-01-29T03:11:48;98918.00;;;2.20
15062;BMP180;7630;50.306;8.566;2023-01-29T03:15:52;98908.00;;;1.60
15062;BMP180;7630;50.306;8.566;2023-01-29T03:19:59;98927.00;;;1.60
15062;BMP180;7630;50.306;8.566;2023-01-29T03:24:02;98915.00;;;1.90
15062;BMP180;7630;50.306;8.566;2023-01-29T03:28:22;98910.00;;;1.70
15062;BMP180;7630;50.306;8.566;2023-01-29T03:32:43;98902.00;;;2.00
15062;BMP180;7630;50.306;8.566;2023-01-29T03:36:51;98901.00;;;1.70
15062;BMP180;7630;50.306;8.566;2023-01-29T03:40:58;98899.00;;;1.90
15062;BMP180;7630;50.306;8.566;2023-01-29T03:45:20;98899.00;;;1.80
15062;BMP180;7630;50.306;8.566;2023-01-29T03:58:14;98929.00;;;1.10
15062;BMP180;7630;50.306;8.566;2023-01-29T04:02:16;98923.00;;;0.80
15062;BMP180;7630;50.306;8.566;2023-01-29T04:06:23;98908.00;;;1.30
15062;BMP180;7630;50.306;8.566;2023-01-29T04:10:28;98893.00;;;1.60
15062;BMP180;7630;50.306;8.566;2023-01-29T04:14:30;98892.00;;;1.60
15062;BMP180;7630;50.306;8.566;2023-01-29T04:18:34;98892.00;;;1.50
15062;BMP180;7630;50.306;8.566;2023-01-29T04:22:37;98900.00;;;1.50
15062;BMP180;7630;50.306;8.566;2023-01-29T04:27:17;98914.00;;;1.20
15062;BMP180;7630;50.306;8.566;2023-01-29T04:31:16;98909.00;;;1.30
15062;BMP180;7630;50.306;8.566;2023-01-29T04:35:38;98923.00;;;0.50
15062;BMP180;7630;50.306;8.566;2023-01-29T04:44:04;98912.00;;;0.70
15062;BMP180;7630;50.306;8.566;2023-01-29T04:48:29;98917.00;;;1.40
15062;BMP180;7630;50.306;8.566;2023-01-29T04:52:24;98917.00;;;0.80
15062;BMP180;7630;50.306;8.566;2023-01-29T04:56:40;98916.00;;;1.10
15062;BMP180;7630;50.306;8.566;2023-01-29T05:00:39;98900.00;;;0.80
15062;BMP180;7630;50.306;8.566;2023-01-29T05:04:42;98905.00;;;1.60
15062;BMP180;7630;50.306;8.566;2023-01-29T05:08:45;98888.00;;;1.80
15062;BMP180;7630;50.306;8.566;2023-01-29T05:12:57;98879.00;;;1.00
15062;BMP180;7630;50.306;8.566;2023-01-29T05:17:02;98867.00;;;1.00
15062;BMP180;7630;50.306;8.566;2023-01-29T05:21:05;98867.00;;;0.80
15062;BMP180;7630;50.306;8.566;2023-01-29T05:25:25;98878.00;;;1.10
15062;BMP180;7630;50.306;8.566;2023-01-29T05:29:27;98889.00;;;1.00
15062;BMP180;7630;50.306;8.566;2023-01-29T05:33:29;98884.00;;;1.50
15062;BMP180;7630;50.306;8.566;2023-01-29T05:37:31;98864.00;;;1.00
15062;BMP180;7630;50.306;8.566;2023-01-29T05:41:32;98610.00;;;1.00
15062;BMP180;7630;50.306;8.566;2023-01-29T05:45:33;98900.00;;;1.00
15062;BMP180;7630;50.306;8.566;2023-01-29T05:49:34;98912.00;;;1.20
15062;BMP180;7630;50.306;8.566;2023-01-29T05:53:37;98911.00;;;1.30
15062;BMP180;7630;50.306;8.566;2023-01-29T05:57:39;98919.00;;;1.10
15062;BMP180;7630;50.306;8.566;2023-01-29T06:01:40;98906.00;;;1.40
15062;BMP180;7630;50.306;8.566;2023-01-29T06:05:43;98908.00;;;1.30
15062;BMP180;7630;50.306;8.566;2023-01-29T06:09:44;98901.00;;;1.10
15062;BMP180;7630;50.306;8.566;2023-01-29T06:13:45;98884.00;;;1.00
15062;BMP180;7630;50.306;8.566;2023-01-29T06:17:47;98862.00;;;0.30
15062;BMP180;7630;50.306;8.566;2023-01-29T06:21:48;98864.00;;;0.20
15062;BMP180;7630;50.306;8.566;2023-01-29T06:25:49;98855.00;;;0.60
15062;BMP180;7630;50.306;8.566;2023-01-29T06:29:51;98855.00;;;0.90
15062;BMP180;7630;50.306;8.566;2023-01-29T06:33:54;98868.00;;;1.00
15062;BMP180;7630;50.306;8.566;2023-01-29T06:37:55;98861.00;;;0.90
15062;BMP180;7630;50.306;8.566;2023-01-29T06:41:56;98879.00;;;1.00
15062;BMP180;7630;50.306;8.566;2023-01-29T06:45:57;98876.00;;;0.70
15062;BMP180;7630;50.306;8.566;2023-01-29T06:49:59;98884.00;;;0.60
15062;BMP180;7630;50.306;8.566;2023-01-29T06:54:00;98890.00;;;0.10
15062;BMP180;7630;50.306;8.566;2023-01-29T06:58:10;98881.00;;;-0.20
15062;BMP180;7630;50.306;8.566;2023-01-29T07:02:12;98892.00;;;0.70
15062;BMP180;7630;50.306;8.566;2023-01-29T07:06:13;98904.00;;;1.00
15062;BMP180;7630;50.306;8.566;2023-01-29T07:10:14;98909.00;;;0.70
15062;BMP180;7630;50.306;8.566;2023-01-29T07:14:16;98925.00;;;1.00
15062;BMP180;7630;50.306;8.566;2023-01-29T07:18:17;98915.00;;;0.30
15062;BMP180;7630;50.306;8.566;2023-01-29T07:22:18;98920.00;;;0.30
15062;BMP180;7630;50.306;8.566;2023-01-29T07:26:19;98893.00;;;0.10
15062;BMP180;7630;50.306;8.566;2023-01-29T07:30:21;98896.00;;;0.00
15062;BMP180;7630;50.306;8.566;2023-01-29T07:34:22;98883.00;;;0.50
15062;BMP180;7630;50.306;8.566;2023-01-29T07:38:23;98883.00;;;0.40
15062;BMP180;7630;50.306;8.566;2023-01-29T07:42:24;98874.00;;;0.30
15062;BMP180;7630;50.306;8.566;2023-01-29T07:46:25;98894.00;;;0.60
15062;BMP180;7630;50.306;8.566;2023-01-29T07:50:26;98919.00;;;0.40
15062;BMP180;7630;50.306;8.566;2023-01-29T07:54:28;98907.00;;;0.40
15062;BMP180;7630;50.306;8.566;2023-01-29T07:58:29;98904.00;;;0.40
15062;BMP180;7630;50.306;8.566;2023-01-29T08:02:30;98920.00;;;0.40
15062;BMP180;7630;50.306;8.566;2023-01-29T08:06:31;98928.00;;;-0.10
15062;BMP180;7630;50.306;8.566;2023-01-29T08:10:34;98933.00;;;0.10
15062;BMP180;7630;50.306;8.566;2023-01-29T08:14:35;98910.00;;;1.20
15062;BMP180;7630;50.306;8.566;2023-01-29T08:18:37;98901.00;;;1.20
15062;BMP180;7630;50.306;8.566;2023-01-29T08:22:38;98901.00;;;1.10
15062;BMP180;7630;50.306;8.566;2023-01-29T08:26:39;98902.00;;;1.50
15062;BMP180;7630;50.306;8.566;2023-01-29T08:30:40;98912.00;;;1.60
15062;BMP180;7630;50.306;8.566;2023-01-29T08:34:43;98916.00;;;2.10
15062;BMP180;7630;50.306;8.566;2023-01-29T08:38:46;98911.00;;;2.60
15062;BMP180;7630;50.306;8.566;2023-01-29T08:42:47;98914.00;;;2.60
15062;BMP180;7630;50.306;8.566;2023-01-29T08:46:48;98922.00;;;2.80
15062;BMP180;7630;50.306;8.566;2023-01-29T08:50:49;98937.00;;;2.80
15062;BMP180;7630;50.306;8.566;2023-01-29T08:54:50;98926.00;;;3.20
15062;BMP180;7630;50.306;8.566;2023-01-29T08:58:52;98929.00;;;3.40
15062;BMP180;7630;50.306;8.566;2023-01-29T09:02:53;98920.00;;;3.20
15062;BMP180;7630;50.306;8.566;2023-01-29T09:06:54;98945.00;;;3.50
15062;BMP180;7630;50.306;8.566;2023-01-29T09:10:57;98949.00;;;3.20
15062;BMP180;7630;50.306;8.566;2023-01-29T09:14:59;98941.00;;;1.60
15062;BMP180;7630;50.306;8.566;2023-01-29T09:19:00;98945.00;;;3.00
15062;BMP180;7630;50.306;8.566;2023-01-29T09:23:05;98965.00;;;3.30
15062;BMP180;7630;50.306;8.566;2023-01-29T09:27:07;98964.00;;;2.90
15062;BMP180;7630;50.306;8.566;2023-01-29T09:31:10;98970.00;;;3.00
15062;BMP180;7630;50.306;8.566;2023-01-29T09:35:11;98957.00;;;2.60
15062;BMP180;7630;50.306;8.566;2023-01-29T09:39:13;98959.00;;;2.70
15062;BMP180;7630;50.306;8.566;2023-01-29T09:43:20;98962.00;;;2.30
15062;BMP180;7630;50.306;8.566;2023-01-29T09:47:24;98958.00;;;2.00
15062;BMP180;7630;50.306;8.566;2023-01-29T09:51:34;98822.00;;;2.00
15062;BMP180;7630;50.306;8.566;2023-01-29T09:55:38;98971.00;;;2.60
15062;BMP180;7630;50.306;8.566;2023-01-29T09:59:39;98944.00;;;2.90
15062;BMP180;7630;50.306;8.566;2023-01-29T10:04:13;98925.00;;;3.30
15062;BMP180;7630;50.306;8.566;2023-01-29T10:21:18;98888.00;;;3.80
15062;BMP180;7630;50.306;8.566;2023-01-29T10:25:11;98881.00;;;3.90
15062;BMP180;7630;50.306;8.566;2023-01-29T10:29:16;98898.00;;;4.30
15062;BMP180;7630;50.306;8.566;2023-01-29T10:33:25;98885.00;;;3.90
15062;BMP180;7630;50.306;8.566;2023-01-29T10:37:40;98875.00;;;3.90
15062;BMP180;7630;50.306;8.566;2023-01-29T10:59:02;98842.00;;;3.90
15062;BMP180;7630;50.306;8.566;2023-01-29T11:07:21;98832.00;;;4.10
15062;BMP180;7630;50.306;8.566;2023-01-29T11:11:33;98829.00;;;4.40
15062;BMP180;7630;50.306;8.566;2023-01-29T11:15:31;98827.00;;;5.10
15062;BMP180;7630;50.306;8.566;2023-01-29T11:19:40;98830.00;;;4.50
15062;BMP180;7630;50.306;8.566;2023-01-29T11:23:42;98826.00;;;4.40
15062;BMP180;7630;50.306;8.566;2023-01-29T11:27:58;98823.00;;;4.40
15062;BMP180;7630;50.306;8.566;2023-01-29T11:32:13;98809.00;;;5.20
15062;BMP180;7630;50.306;8.566;2023-01-29T11:36:36;98793.00;;;4.80
15062;BMP180;7630;50.306;8.566;2023-01-29T11:40:39;98800.00;;;5.20
15062;BMP180;7630;50.306;8.566;2023-01-29T11:44:41;98774.00;;;3.90
15062;BMP180;7630;50.306;8.566;2023-01-29T11:48:48;98780.00;;;4.40
15062;BMP180;7630;50.306;8.566;2023-01-29T11:52:51;98770.00;;;5.10
15062;BMP180;7630;50.306;8.566;2023-01-29T11:56:53;98770.00;;;4.40
15062;BMP180;7630;50.306;8.566;2023-01-29T12:00:56;98762.00;;;4.80
15062;BMP180;7630;50.306;8.566;2023-01-29T12:05:22;98755.00;;;4.50
15062;BMP180;7630;50.306;8.566;2023-01-29T12:09:14;98740.00;;;3.60
15062;BMP180;7630;50.306;8.566;2023-01-29T12:13:26;98734.00;;;2.60
15062;BMP180;7630;50.306;8.566;2023-01-29T12:17:29;98738.00;;;4.10
15062;BMP180;7630;50.306;8.566;2023-01-29T12:21:37;98721.00;;;4.80
15062;BMP180;7630;50.306;8.566;2023-01-29T12:25:41;98721.00;;;4.40
15062;BMP180;7630;50.306;8.566;2023-01-29T12:42:19;98690.00;;;5.90
15062;BMP180;7630;50.306;8.566;2023-01-29T12:46:27;98684.00;;;4.10
15062;BMP180;7630;50.306;8.566;2023-01-29T12:50:34;98676.00;;;4.10
15062;BMP180;7630;50.306;8.566;2023-01-29T12:58:51;98667.00;;;4.80
15062;BMP180;7630;50.306;8.566;2023-01-29T13:07:23;98658.00;;;5.50
15062;BMP180;7630;50.306;8.566;2023-01-29T13:11:59;98651.00;;;5.40
15062;BMP180;7630;50.306;8.566;2023-01-29T13:16:04;98655.00;;;5.90
15062;BMP180;7630;50.306;8.566;2023-01-29T13:24:20;98645.00;;;5.70
15062;BMP180;7630;50.306;8.566;2023-01-29T13:28:24;98647.00;;;5.60
15062;BMP180;7630;50.306;8.566;2023-01-29T13:32:29;98642.00;;;6.10
15062;BMP180;7630;50.306;8.566;2023-01-29T13:36:30;98649.00;;;5.70
15062;BMP180;7630;50.306;8.566;2023-01-29T13:40:32;98657.00;;;5.70
15062;BMP180;7630;50.306;8.566;2023-01-29T13:44:37;98652.00;;;5.80
15062;BMP180;7630;50.306;8.566;2023-01-29T13:48:44;98648.00;;;6.20
15062;BMP180;7630;50.306;8.566;2023-01-29T13:52:58;98644.00;;;6.20
15062;BMP180;7630;50.306;8.566;2023-01-29T13:56:58;98639.00;;;5.70
15062;BMP180;7630;50.306;8.566;2023-01-29T14:01:00;98642.00;;;5.90
15062;BMP180;7630;50.306;8.566;2023-01-29T14:09:30;98632.00;;;5.40
15062;BMP180;7630;50.306;8.566;2023-01-29T14:13:33;98625.00;;;5.20
15062;BMP180;7630;50.306;8.566;2023-01-29T14:17:36;98612.00;;;3.60
15062;BMP180;7630;50.306;8.566;2023-01-29T14:21:37;98606.00;;;3.50
15062;BMP180;7630;50.306;8.566;2023-01-29T14:25:39;98607.00;;;3.00
15062;BMP180;7630;50.306;8.566;2023-01-29T14:29:41;98602.00;;;2.70
15062;BMP180;7630;50.306;8.566;2023-01-29T14:33:42;98596.00;;;3.50
15062;BMP180;7630;50.306;8.566;2023-01-29T14:37:47;98596.00;;;4.20
15062;BMP180;7630;50.306;8.566;2023-01-29T14:41:50;98586.00;;;3.10
15062;BMP180;7630;50.306;8.566;2023-01-29T14:45:52;98587.00;;;2.10
15062;BMP180;7630;50.306;8.566;2023-01-29T14:49:55;98581.00;;;2.30
15062;BMP180;7630;50.306;8.566;2023-01-29T14:54:21;98587.00;;;2.80
15062;BMP180;7630;50.306;8.566;2023-01-29T14:58:31;98580.00;;;3.00
15062;BMP180;7630;50.306;8.566;2023-01-29T15:02:37;98581.00;;;3.80
15062;BMP180;7630;50.306;8.566;2023-01-29T15:06:49;98570.00;;;3.00
15062;BMP180;7630;50.306;8.566;2023-01-29T15:10:52;98574.00;;;3.30
15062;BMP180;7630;50.306;8.566;2023-01-29T15:15:13;98568.00;;;2.90
15062;BMP180;7630;50.306;8.566;2023-01-29T15:19:36;98554.00;;;1.90
15062;BMP180;7630;50.306;8.566;2023-01-29T15:23:39;98548.00;;;3.00
15062;BMP180;7630;50.306;8.566;2023-01-29T15:27:42;98537.00;;;3.20
15062;BMP180;7630;50.306;8.566;2023-01-29T15:31:43;98528.00;;;3.10
15062;BMP180;7630;50.306;8.566;2023-01-29T15:35:47;98527.00;;;3.30
15062;BMP180;7630;50.306;8.566;2023-01-29T15:39:50;98522.00;;;3.20
15062;BMP180;7630;50.306;8.566;2023-01-29T15:43:56;98516.00;;;3.20
15062;BMP180;7630;50.306;8.566;2023-01-29T15:48:03;98519.00;;;3.80
15062;BMP180;7630;50.306;8.566;2023-01-29T15:52:27;98344.00;;;2.80
15062;BMP180;7630;50.306;8.566;2023-01-29T15:56:35;98521.00;;;3.20
15062;BMP180;7630;50.306;8.566;2023-01-29T16:00:34;98358.00;;;2.60
15062;BMP180;7630;50.306;8.566;2023-01-29T16:04:35;98529.00;;;3.30
15062;BMP180;7630;50.306;8.566;2023-01-29T16:08:37;98538.00;;;3.60
15062;BMP180;7630;50.306;8.566;2023-01-29T16:12:40;98548.00;;;3.50
15062;BMP180;7630;50.306;8.566;2023-01-29T16:16:41;98557.00;;;3.50
15062;BMP180;7630;50.306;8.566;2023-01-29T16:20:55;98569.00;;;3.60
15062;BMP180;7630;50.306;8.566;2023-01-29T16:25:03;98579.00;;;3.90
15062;BMP180;7630;50.306;8.566;2023-01-29T16:29:06;98573.00;;;3.40
15062;BMP180;7630;50.306;8.566;2023-01-29T16:33:13;98580.00;;;3.40
15062;BMP180;7630;50.306;8.566;2023-01-29T16:37:25;98573.00;;;2.90
15062;BMP180;7630;50.306;8.566;2023-01-29T16:41:29;98592.00;;;2.40
15062;BMP180;7630;50.306;8.566;2023-01-29T16:45:31;98580.00;;;2.30
15062;BMP180;7630;50.306;8.566;2023-01-29T16:53:51;98581.00;;;1.40
15062;BMP180;7630;50.306;8.566;2023-01-29T16:57:49;98579.00;;;1.60
15062;BMP180;7630;50.306;8.566;2023-01-29T17:01:50;98581.00;;;2.50
15062;BMP180;7630;50.306;8.566;2023-01-29T17:05:52;98583.00;;;2.60
15062;BMP180;7630;50.306;8.566;2023-01-29T17:09:55;98588.00;;;2.60
15062;BMP180;7630;50.306;8.566;2023-01-29T17:13:58;98584.00;;;2.20
15062;BMP180;7630;50.306;8.566;2023-01-29T17:17:59;98587.00;;;2.20
15062;BMP180;7630;50.306;8.566;2023-01-29T17:22:03;98591.00;;;1.80
15062;BMP180;7630;50.306;8.566;2023-01-29T17:26:07;98595.00;;;2.70
15062;BMP180;7630;50.306;8.566;2023-01-29T17:30:14;98602.00;;;2.80
15062;BMP180;7630;50.306;8.566;2023-01-29T17:34:16;98598.00;;;3.00
15062;BMP180;7630;50.306;8.566;2023-01-29T17:38:19;98599.00;;;2.70
15062;BMP180;7630;50.306;8.566;2023-01-29T17:42:22;98587.00;;;2.60
15062;BMP180;7630;50.306;8.566;2023-01-29T17:46:23;98581.00;;;2.30
15062;BMP180;7630;50.306;8.566;2023-01-29T17:50:26;98588.00;;;2.20
15062;BMP180;7630;50.306;8.566;2023-01-29T17:54:28;98579.00;;;2.10
15062;BMP180;7630;50.306;8.566;2023-01-29T17:58:30;98571.00;;;2.00
15062;BMP180;7630;50.306;8.566;2023-01-29T18:02:32;98569.00;;;2.00
15062;BMP180;7630;50.306;8.566;2023-01-29T18:06:34;98557.00;;;1.90
15062;BMP180;7630;50.306;8.566;2023-01-29T18:10:35;98574.00;;;1.70
15062;BMP180;7630;50.306;8.566;2023-01-29T18:14:37;98545.00;;;1.40
15062;BMP180;7630;50.306;8.566;2023-01-29T18:18:39;98549.00;;;1.80
15062;BMP180;7630;50.306;8.566;2023-01-29T18:22:41;98545.00;;;1.80
15062;BMP180;7630;50.306;8.566;2023-01-29T18:26:42;98539.00;;;1.80
15062;BMP180;7630;50.306;8.566;2023-01-29T18:30:44;98541.00;;;1.70
15062;BMP180;7630;50.306;8.566;2023-01-29T18:34:46;98535.00;;;1.30
15062;BMP180;7630;50.306;8.566;2023-01-29T18:38:47;98530.00;;;1.50
15062;BMP180;7630;50.306;8.566;2023-01-29T18:42:49;98541.00;;;1.50
15062;BMP180;7630;50.306;8.566;2023-01-29T18:46:50;98519.00;;;1.20
15062;BMP180;7630;50.306;8.566;2023-01-29T18:50:51;98504.00;;;1.10
15062;BMP180;7630;50.306;8.566;2023-01-29T18:54:53;98498.00;;;1.10
15062;BMP180;7630;50.306;8.566;2023-01-29T18:58:54;98489.00;;;0.90
15062;BMP180;7630;50.306;8.566;2023-01-29T19:02:56;98491.00;;;1.10
15062;BMP180;7630;50.306;8.566;2023-01-29T19:06:57;98497.00;;;0.50
15062;BMP180;7630;50.306;8.566;2023-01-29T19:10:59;98492.00;;;0.70
15062;BMP180;7630;50.306;8.566;2023-01-29T19:15:03;98481.00;;;1.20
15062;BMP180;7630;50.306;8.566;2023-01-29T19:19:05;98489.00;;;1.00
15062;BMP180;7630;50.306;8.566;2023-01-29T19:23:07;98487.00;;;1.10
15062;BMP180;7630;50.306;8.566;2023-01-29T19:27:09;98481.00;;;1.10
15062;BMP180;7630;50.306;8.566;2023-01-29T19:31:11;98483.00;;;1.10
15062;BMP180;7630;50.306;8.566;2023-01-29T19:35:13;98487.00;;;0.20
15062;BMP180;7630;50.306;8.566;2023-01-29T19:39:15;98488.00;;;0.80
15062;BMP180;7630;50.306;8.566;2023-01-29T19:43:18;98479.00;;;0.90
15062;BMP180;7630;50.306;8.566;2023-01-29T19:47:19;98477.00;;;0.20
15062;BMP180;7630;50.306;8.566;2023-01-29T19:51:21;98478.00;;;-0.10
15062;BMP180;7630;50.306;8.566;2023-01-29T19:55:23;98486.00;;;0.40
15062;BMP180;7630;50.306;8.566;2023-01-29T19:59:25;98483.00;;;0.90
15062;BMP180;7630;50.306;8.566;2023-01-29T20:03:27;98472.00;;;0.10
15062;BMP180;7630;50.306;8.566;2023-01-29T20:07:29;98466.00;;;0.30
15062;BMP180;7630;50.306;8.566;2023-01-29T20:11:31;98467.00;;;0.60
15062;BMP180;7630;50.306;8.566;2023-01-29T20:15:32;98450.00;;;0.00
15062;BMP180;7630;50.306;8.566;2023-01-29T20:19:34;98447.00;;;0.10
15062;BMP180;7630;50.306;8.566;2023-01-29T20:23:35;98450.00;;;1.50
15062;BMP180;7630;50.306;8.566;2023-01-29T20:27:38;98445.00;;;0.90
15062;BMP180;7630;50.306;8.566;2023-01-29T20:31:40;98456.00;;;0.80
15062;BMP180;7630;50.306;8.566;2023-01-29T20:35:41;98427.00;;;1.50
15062;BMP180;7630;50.306;8.566;2023-01-29T20:39:42;98432.00;;;1.70
15062;BMP180;7630;50.306;8.566;2023-01-29T20:43:44;98426.00;;;1.20
15062;BMP180;7630;50.306;8.566;2023-01-29T20:47:49;98431.00;;;1.30
15062;BMP180;7630;50.306;8.566;2023-01-29T20:51:50;98421.00;;;1.40
15062;BMP180;7630;50.306;8.566;2023-01-29T20:55:51;98232.00;;;1.50
15062;BMP180;7630;50.306;8.566;2023-01-29T20:59:53;98411.00;;;2.10
15062;BMP180;7630;50.306;8.566;2023-01-29T21:03:54;98405.00;;;2.20
15062;BMP180;7630;50.306;8.566;2023-01-29T21:07:56;98394.00;;;2.40
15062;BMP180;7630;50.306;8.566;2023-01-29T21:11:57;98390.00;;;2.10
15062;BMP180;7630;50.306;8.566;2023-01-29T21:15:58;98382.00;;;1.80
15062;BMP180;7630;50.306;8.566;2023-01-29T21:19:59;98372.00;;;1.60
15062;BMP180;7630;50.306;8.566;2023-01-29T21:24:00;98385.00;;;2.50
15062;BMP180;7630;50.306;8.566;2023-01-29T21:28:02;98361.00;;;3.00
15062;BMP180;7630;50.306;8.566;2023-01-29T21:32:04;98340.00;;;3.10
15062;BMP180;7630;50.306;8.566;2023-01-29T21:36:06;98330.00;;;3.00
15062;BMP180;7630;50.306;8.566;2023-01-29T21:40:08;98318.00;;;2.70
15062;BMP180;7630;50.306;8.566;2023-01-29T21:44:11;98303.00;;;2.80
15062;BMP180;7630;50.306;8.566;2023-01-29T21:48:12;98293.00;;;2.20
15062;BMP180;7630;50.306;8.566;2023-01-29T21:52:14;98284.00;;;2.30
15062;BMP180;7630;50.306;8.566;2023-01-29T21:56:15;98288.00;;;2.00
15062;BMP180;7630;50.306;8.566;2023-01-29T22:00:18;98292.00;;;2.50
15062;BMP180;7630;50.306;8.566;2023-01-29T22:04:20;98297.00;;;2.90
15062;BMP180;7630;50.306;8.566;2023-01-29T22:08:21;98288.00;;;2.80
15062;BMP180;7630;50.306;8.566;2023-01-29T22:12:22;98280.00;;;3.10
15062;BMP180;7630;50.306;8.566;2023-01-29T22:16:23;98269.00;;;2.70
15062;BMP180;7630;50.306;8.566;2023-01-29T22:20:24;98284.00;;;3.00
15062;BMP180;7630;50.306;8.566;2023-01-29T22:24:27;98284.00;;;2.20
15062;BMP180;7630;50.306;8.566;2023-01-29T22:28:28;98281.00;;;2.40
15062;BMP180;7630;50.306;8.566;2023-01-29T22:32:31;98263.00;;;2.60
15062;BMP180;7630;50.306;8.566;2023-01-29T22:36:32;98254.00;;;2.70
15062;BMP180;7630;50.306;8.566;2023-01-29T22:40:33;98245.00;;;3.00
15062;BMP180;7630;50.306;8.566;2023-01-29T22:44:34;98239.00;;;3.30
15062;BMP180;7630;50.306;8.566;2023-01-29T22:48:35;98226.00;;;3.00
15062;BMP180;7630;50.306;8.566;2023-01-29T22:52:36;98228.00;;;3.30
15062;BMP180;7630;50.306;8.566;2023-01-29T22:56:42;98204.00;;;2.90
15062;BMP180;7630;50.306;8.566;2023-01-29T23:00:43;98199.00;;;3.20
15062;BMP180;7630;50.306;8.566;2023-01-29T23:04:44;98186.00;;;3.40
15062;BMP180;7630;50.306;8.566;2023-01-29T23:08:45;98186.00;;;3.40
15062;BMP180;7630;50.306;8.566;2023-01-29T23:12:46;98200.00;;;3.90
15062;BMP180;7630;50.306;8.566;2023-01-29T23:16:47;98216.00;;;4.00
15062;BMP180;7630;50.306;8.566;2023-01-29T23:20:54;98215.00;;;3.60
15062;BMP180;7630;50.306;8.566;2023-01-29T23:24:53;98208.00;;;2.50
15062;BMP180;7630;50.306;8.566;2023-01-29T23:28:54;98223.00;;;2.80
15062;BMP180;7630;50.306;8.566;2023-01-29T23:32:55;98214.00;;;3.10
15062;BMP180;7630;50.306;8.566;2023-01-29T23:36:56;98216.00;;;1.80
15062;BMP180;7630;50.306;8.566;2023-01-29T23:40:58;98202.00;;;1.80
15062;BMP180;7630;50.306;8.566;2023-01-29T23:44:59;98202.00;;;1.50
15062;BMP180;7630;50.306;8.566;2023-01-29T23:49:00;98191.00;;;0.90
15062;BMP180;7630;50.306;8.566;2023-01-29T23:53:01;98193.00;;;1.80
15062;BMP180;7630;50.306;8.566;2023-01-29T23:57:03;98168.00;;;2.50
